sensor_id;sensor_type;location;lat;lon;timestamp;temperature;humidity
51567;DHT22;37657;53.182;5.638;2023-07-20T00:01:57;14.50;99.90
51567;DHT22;37657;53.182;5.638;2023-07-20T00:04:23;14.40;99.90
51567;DHT22;37657;53.182;5.638;2023-07-20T00:06:48;14.20;99.90
51567;DHT22;37657;53.182;5.638;2023-07-20T00:09:14;14.40;99.90
51567;DHT22;37657;53.182;5.638;2023-07-20T00:11:39;14.00;99.90
51567;DHT22;37657;53.182;5.638;2023-07-20T00:14:06;13.90;99.90
51567;DHT22;37657;53.182;5.638;2023-07-20T00:16:31;13.90;99.90
51567;DHT22;37657;53.182;5.638;2023-07-20T00:18:57;14.10;99.90
51567;DHT22;37657;53.182;5.638;2023-07-20T00:21:22;13.70;99.90
51567;DHT22;37657;53.182;5.638;2023-07-20T00:23:48;13.80;99.90
51567;DHT22;37657;53.182;5.638;2023-07-20T00:26:13;13.70;99.90
51567;DHT22;37657;53.182;5.638;2023-07-20T00:28:39;14.20;99.90
51567;DHT22;37657;53.182;5.638;2023-07-20T00:31:05;13.60;99.90
51567;DHT22;37657;53.182;5.638;2023-07-20T00:33:30;13.50;99.90
51567;DHT22;37657;53.182;5.638;2023-07-20T00:35:56;13.80;99.90
51567;DHT22;37657;53.182;5.638;2023-07-20T00:38:22;14.10;99.90
51567;DHT22;37657;53.182;5.638;2023-07-20T00:40:47;13.40;99.90
51567;DHT22;37657;53.182;5.638;2023-07-20T00:43:14;13.40;99.90
51567;DHT22;37657;53.182;5.638;2023-07-20T00:45:40;13.40;99.90
51567;DHT22;37657;53.182;5.638;2023-07-20T00:48:06;13.50;99.90
51567;DHT22;37657;53.182;5.638;2023-07-20T00:50:33;13.50;99.90
51567;DHT22;37657;53.182;5.638;2023-07-20T00:52:59;13.50;99.90
51567;DHT22;37657;53.182;5.638;2023-07-20T00:55:26;13.70;99.90
51567;DHT22;37657;53.182;5.638;2023-07-20T00:57:52;13.50;99.90
51567;DHT22;37657;53.182;5.638;2023-07-20T01:00:18;13.50;99.90
51567;DHT22;37657;53.182;5.638;2023-07-20T01:02:44;13.40;99.90
51567;DHT22;37657;53.182;5.638;2023-07-20T01:05:10;13.40;99.90
51567;DHT22;37657;53.182;5.638;2023-07-20T01:07:58;13.60;99.90
51567;DHT22;37657;53.182;5.638;2023-07-20T01:10:46;13.50;99.90
51567;DHT22;37657;53.182;5.638;2023-07-20T01:13:17;13.50;99.90
51567;DHT22;37657;53.182;5.638;2023-07-20T01:15:49;13.80;99.90
51567;DHT22;37657;53.182;5.638;2023-07-20T01:18:15;13.50;99.90
51567;DHT22;37657;53.182;5.638;2023-07-20T01:20:41;13.40;99.90
51567;DHT22;37657;53.182;5.638;2023-07-20T01:25:43;13.30;99.90
51567;DHT22;37657;53.182;5.638;2023-07-20T01:28:37;13.30;99.90
51567;DHT22;37657;53.182;5.638;2023-07-20T01:31:24;13.30;99.90
51567;DHT22;37657;53.182;5.638;2023-07-20T01:33:53;13.40;99.90
51567;DHT22;37657;53.182;5.638;2023-07-20T01:36:19;13.60;99.90
51567;DHT22;37657;53.182;5.638;2023-07-20T01:38:47;13.50;99.90
51567;DHT22;37657;53.182;5.638;2023-07-20T01:41:13;13.20;99.90
51567;DHT22;37657;53.182;5.638;2023-07-20T01:43:40;13.20;99.90
51567;DHT22;37657;53.182;5.638;2023-07-20T01:46:06;13.50;99.90
51567;DHT22;37657;53.182;5.638;2023-07-20T01:48:31;13.20;99.90
51567;DHT22;37657;53.182;5.638;2023-07-20T01:50:57;13.30;99.90
51567;DHT22;37657;53.182;5.638;2023-07-20T01:53:23;13.00;99.90
51567;DHT22;37657;53.182;5.638;2023-07-20T01:55:48;13.00;99.90
51567;DHT22;37657;53.182;5.638;2023-07-20T01:58:14;13.00;99.90
51567;DHT22;37657;53.182;5.638;2023-07-20T02:00:39;13.00;99.90
51567;DHT22;37657;53.182;5.638;2023-07-20T02:03:05;12.80;99.90
51567;DHT22;37657;53.182;5.638;2023-07-20T02:05:31;12.90;99.90
51567;DHT22;37657;53.182;5.638;2023-07-20T02:07:57;12.80;99.90
51567;DHT22;37657;53.182;5.638;2023-07-20T02:10:22;13.20;99.90
51567;DHT22;37657;53.182;5.638;2023-07-20T02:12:48;13.60;99.90
51567;DHT22;37657;53.182;5.638;2023-07-20T02:15:15;12.80;99.90
51567;DHT22;37657;53.182;5.638;2023-07-20T02:17:42;12.80;99.90
51567;DHT22;37657;53.182;5.638;2023-07-20T02:20:09;12.70;99.90
51567;DHT22;37657;53.182;5.638;2023-07-20T02:22:38;12.70;99.90
51567;DHT22;37657;53.182;5.638;2023-07-20T02:25:05;13.10;99.90
51567;DHT22;37657;53.182;5.638;2023-07-20T02:27:35;12.70;99.90
51567;DHT22;37657;53.182;5.638;2023-07-20T02:30:01;12.70;99.90
51567;DHT22;37657;53.182;5.638;2023-07-20T02:32:28;12.80;99.90
51567;DHT22;37657;53.182;5.638;2023-07-20T02:34:53;12.70;99.90
51567;DHT22;37657;53.182;5.638;2023-07-20T02:37:19;12.70;99.90
51567;DHT22;37657;53.182;5.638;2023-07-20T02:39:45;12.70;99.90
51567;DHT22;37657;53.182;5.638;2023-07-20T02:42:10;12.70;99.90
51567;DHT22;37657;53.182;5.638;2023-07-20T02:44:36;12.70;99.90
51567;DHT22;37657;53.182;5.638;2023-07-20T02:47:01;12.70;99.90
51567;DHT22;37657;53.182;5.638;2023-07-20T02:49:27;12.70;99.90
51567;DHT22;37657;53.182;5.638;2023-07-20T02:51:53;12.70;99.90
51567;DHT22;37657;53.182;5.638;2023-07-20T02:54:18;12.70;99.90
51567;DHT22;37657;53.182;5.638;2023-07-20T02:56:44;12.60;99.90
51567;DHT22;37657;53.182;5.638;2023-07-20T02:59:10;12.60;99.90
51567;DHT22;37657;53.182;5.638;2023-07-20T03:01:35;12.70;99.90
51567;DHT22;37657;53.182;5.638;2023-07-20T03:04:01;12.60;99.90
51567;DHT22;37657;53.182;5.638;2023-07-20T03:06:28;12.60;99.90
51567;DHT22;37657;53.182;5.638;2023-07-20T03:08:53;12.60;99.90
51567;DHT22;37657;53.182;5.638;2023-07-20T03:11:20;12.60;99.90
51567;DHT22;37657;53.182;5.638;2023-07-20T03:13:46;12.70;99.90
51567;DHT22;37657;53.182;5.638;2023-07-20T03:16:13;12.60;99.90
51567;DHT22;37657;53.182;5.638;2023-07-20T03:18:41;12.70;99.90
51567;DHT22;37657;53.182;5.638;2023-07-20T03:21:08;12.70;99.90
51567;DHT22;37657;53.182;5.638;2023-07-20T03:23:34;12.70;99.90
51567;DHT22;37657;53.182;5.638;2023-07-20T03:26:00;12.60;99.90
51567;DHT22;37657;53.182;5.638;2023-07-20T03:28:26;12.60;99.90
51567;DHT22;37657;53.182;5.638;2023-07-20T03:30:58;12.60;99.90
51567;DHT22;37657;53.182;5.638;2023-07-20T03:33:28;12.70;99.90
51567;DHT22;37657;53.182;5.638;2023-07-20T03:35:54;12.60;99.90
51567;DHT22;37657;53.182;5.638;2023-07-20T03:38:21;12.60;99.90
51567;DHT22;37657;53.182;5.638;2023-07-20T03:41:13;12.50;99.90
51567;DHT22;37657;53.182;5.638;2023-07-20T03:43:41;12.60;99.90
51567;DHT22;37657;53.182;5.638;2023-07-20T03:46:06;12.40;99.90
51567;DHT22;37657;53.182;5.638;2023-07-20T03:48:32;12.50;99.90
51567;DHT22;37657;53.182;5.638;2023-07-20T03:50:58;12.60;99.90
51567;DHT22;37657;53.182;5.638;2023-07-20T03:53:25;12.70;99.90
51567;DHT22;37657;53.182;5.638;2023-07-20T03:55:51;12.70;99.90
51567;DHT22;37657;53.182;5.638;2023-07-20T03:58:18;12.80;99.90
51567;DHT22;37657;53.182;5.638;2023-07-20T04:00:49;12.80;99.90
51567;DHT22;37657;53.182;5.638;2023-07-20T04:03:16;12.80;99.90
51567;DHT22;37657;53.182;5.638;2023-07-20T04:05:43;12.90;99.90
51567;DHT22;37657;53.182;5.638;2023-07-20T04:08:09;12.90;99.90
51567;DHT22;37657;53.182;5.638;2023-07-20T04:10:37;12.90;99.90
51567;DHT22;37657;53.182;5.638;2023-07-20T04:13:03;12.90;99.90
51567;DHT22;37657;53.182;5.638;2023-07-20T04:15:29;12.90;99.90
51567;DHT22;37657;53.182;5.638;2023-07-20T04:17:55;12.90;99.90
51567;DHT22;37657;53.182;5.638;2023-07-20T04:20:22;12.80;99.90
51567;DHT22;37657;53.182;5.638;2023-07-20T04:22:47;12.70;99.90
51567;DHT22;37657;53.182;5.638;2023-07-20T04:25:13;12.80;99.90
51567;DHT22;37657;53.182;5.638;2023-07-20T04:27:39;12.90;99.90
51567;DHT22;37657;53.182;5.638;2023-07-20T04:30:07;12.90;99.90
51567;DHT22;37657;53.182;5.638;2023-07-20T04:32:33;13.00;99.90
51567;DHT22;37657;53.182;5.638;2023-07-20T04:34:59;13.00;99.90
51567;DHT22;37657;53.182;5.638;2023-07-20T04:37:25;13.10;99.90
51567;DHT22;37657;53.182;5.638;2023-07-20T04:39:50;13.10;99.90
51567;DHT22;37657;53.182;5.638;2023-07-20T04:42:16;13.10;99.90
51567;DHT22;37657;53.182;5.638;2023-07-20T04:44:42;13.10;99.90
51567;DHT22;37657;53.182;5.638;2023-07-20T04:47:07;13.20;99.90
51567;DHT22;37657;53.182;5.638;2023-07-20T04:49:34;13.20;99.90
51567;DHT22;37657;53.182;5.638;2023-07-20T04:51:59;13.30;99.90
51567;DHT22;37657;53.182;5.638;2023-07-20T04:54:25;13.40;99.90
51567;DHT22;37657;53.182;5.638;2023-07-20T04:56:53;13.50;99.90
51567;DHT22;37657;53.182;5.638;2023-07-20T04:59:18;13.60;99.90
51567;DHT22;37657;53.182;5.638;2023-07-20T05:01:44;13.60;99.90
51567;DHT22;37657;53.182;5.638;2023-07-20T05:04:10;13.70;99.90
51567;DHT22;37657;53.182;5.638;2023-07-20T05:06:35;13.70;99.90
51567;DHT22;37657;53.182;5.638;2023-07-20T05:09:01;13.80;99.90
51567;DHT22;37657;53.182;5.638;2023-07-20T05:11:26;14.00;99.90
51567;DHT22;37657;53.182;5.638;2023-07-20T05:13:52;14.10;99.90
51567;DHT22;37657;53.182;5.638;2023-07-20T05:16:18;14.10;99.90
51567;DHT22;37657;53.182;5.638;2023-07-20T05:18:43;14.10;99.90
51567;DHT22;37657;53.182;5.638;2023-07-20T05:21:09;14.30;99.90
51567;DHT22;37657;53.182;5.638;2023-07-20T05:23:34;14.30;99.90
51567;DHT22;37657;53.182;5.638;2023-07-20T05:26:00;14.40;99.90
51567;DHT22;37657;53.182;5.638;2023-07-20T05:28:26;14.60;99.90
51567;DHT22;37657;53.182;5.638;2023-07-20T05:30:52;14.40;99.90
51567;DHT22;37657;53.182;5.638;2023-07-20T05:33:19;14.80;99.90
51567;DHT22;37657;53.182;5.638;2023-07-20T05:35:45;14.70;99.90
51567;DHT22;37657;53.182;5.638;2023-07-20T05:38:11;14.70;99.90
51567;DHT22;37657;53.182;5.638;2023-07-20T05:40:41;14.80;99.90
51567;DHT22;37657;53.182;5.638;2023-07-20T05:43:10;14.90;99.90
51567;DHT22;37657;53.182;5.638;2023-07-20T05:45:36;15.00;99.90
51567;DHT22;37657;53.182;5.638;2023-07-20T05:48:02;15.20;99.90
51567;DHT22;37657;53.182;5.638;2023-07-20T05:50:28;15.20;99.90
51567;DHT22;37657;53.182;5.638;2023-07-20T05:52:54;15.50;99.90
51567;DHT22;37657;53.182;5.638;2023-07-20T05:55:20;15.50;99.90
51567;DHT22;37657;53.182;5.638;2023-07-20T05:57:46;15.50;99.90
51567;DHT22;37657;53.182;5.638;2023-07-20T06:00:13;15.60;99.90
51567;DHT22;37657;53.182;5.638;2023-07-20T06:02:39;15.70;99.90
51567;DHT22;37657;53.182;5.638;2023-07-20T06:05:06;15.90;99.90
51567;DHT22;37657;53.182;5.638;2023-07-20T06:07:38;15.90;99.90
51567;DHT22;37657;53.182;5.638;2023-07-20T06:10:04;15.90;99.90
51567;DHT22;37657;53.182;5.638;2023-07-20T06:12:31;15.90;99.90
51567;DHT22;37657;53.182;5.638;2023-07-20T06:14:56;15.90;99.90
51567;DHT22;37657;53.182;5.638;2023-07-20T06:17:22;16.00;99.90
51567;DHT22;37657;53.182;5.638;2023-07-20T06:19:47;16.10;99.90
51567;DHT22;37657;53.182;5.638;2023-07-20T06:22:13;16.10;99.90
51567;DHT22;37657;53.182;5.638;2023-07-20T06:24:39;16.10;99.90
51567;DHT22;37657;53.182;5.638;2023-07-20T06:27:05;16.10;99.90
51567;DHT22;37657;53.182;5.638;2023-07-20T06:29:31;16.10;99.90
51567;DHT22;37657;53.182;5.638;2023-07-20T06:31:56;16.20;99.90
51567;DHT22;37657;53.182;5.638;2023-07-20T06:34:22;16.30;99.90
51567;DHT22;37657;53.182;5.638;2023-07-20T06:36:48;16.30;99.90
51567;DHT22;37657;53.182;5.638;2023-07-20T06:39:13;16.30;99.90
51567;DHT22;37657;53.182;5.638;2023-07-20T06:41:39;16.50;99.90
51567;DHT22;37657;53.182;5.638;2023-07-20T06:44:05;16.30;99.90
51567;DHT22;37657;53.182;5.638;2023-07-20T06:46:31;16.40;99.90
51567;DHT22;37657;53.182;5.638;2023-07-20T06:48:56;16.70;99.90
51567;DHT22;37657;53.182;5.638;2023-07-20T06:51:22;16.60;99.90
51567;DHT22;37657;53.182;5.638;2023-07-20T06:53:48;16.90;99.90
51567;DHT22;37657;53.182;5.638;2023-07-20T06:56:14;16.50;99.90
51567;DHT22;37657;53.182;5.638;2023-07-20T06:58:39;16.70;99.90
51567;DHT22;37657;53.182;5.638;2023-07-20T07:01:06;16.80;99.90
51567;DHT22;37657;53.182;5.638;2023-07-20T07:03:32;16.80;99.90
51567;DHT22;37657;53.182;5.638;2023-07-20T07:05:58;16.80;99.90
51567;DHT22;37657;53.182;5.638;2023-07-20T07:08:24;17.00;99.90
51567;DHT22;37657;53.182;5.638;2023-07-20T07:10:50;16.50;99.90
51567;DHT22;37657;53.182;5.638;2023-07-20T07:13:16;16.50;99.90
51567;DHT22;37657;53.182;5.638;2023-07-20T07:15:42;16.70;99.90
51567;DHT22;37657;53.182;5.638;2023-07-20T07:18:08;16.80;99.90
51567;DHT22;37657;53.182;5.638;2023-07-20T07:20:33;17.00;99.90
51567;DHT22;37657;53.182;5.638;2023-07-20T07:22:59;17.10;99.90
51567;DHT22;37657;53.182;5.638;2023-07-20T07:25:26;16.80;99.90
51567;DHT22;37657;53.182;5.638;2023-07-20T07:27:53;17.10;99.90
51567;DHT22;37657;53.182;5.638;2023-07-20T07:30:19;16.90;99.90
51567;DHT22;37657;53.182;5.638;2023-07-20T07:32:46;17.00;99.90
51567;DHT22;37657;53.182;5.638;2023-07-20T07:35:11;17.00;99.90
51567;DHT22;37657;53.182;5.638;2023-07-20T07:37:38;17.00;99.90
51567;DHT22;37657;53.182;5.638;2023-07-20T07:40:04;17.10;99.90
51567;DHT22;37657;53.182;5.638;2023-07-20T07:42:31;17.00;99.90
51567;DHT22;37657;53.182;5.638;2023-07-20T07:44:57;17.10;99.90
51567;DHT22;37657;53.182;5.638;2023-07-20T07:47:22;16.90;99.90
51567;DHT22;37657;53.182;5.638;2023-07-20T07:49:48;17.10;99.90
51567;DHT22;37657;53.182;5.638;2023-07-20T07:52:16;17.10;99.90
51567;DHT22;37657;53.182;5.638;2023-07-20T07:54:41;17.20;99.90
51567;DHT22;37657;53.182;5.638;2023-07-20T07:57:09;17.30;99.90
51567;DHT22;37657;53.182;5.638;2023-07-20T07:59:35;17.30;99.90
51567;DHT22;37657;53.182;5.638;2023-07-20T08:02:05;17.40;99.90
51567;DHT22;37657;53.182;5.638;2023-07-20T08:04:31;17.30;99.90
51567;DHT22;37657;53.182;5.638;2023-07-20T08:06:57;17.20;99.90
51567;DHT22;37657;53.182;5.638;2023-07-20T08:09:23;17.40;99.90
51567;DHT22;37657;53.182;5.638;2023-07-20T08:11:48;17.50;99.90
51567;DHT22;37657;53.182;5.638;2023-07-20T08:14:15;17.40;99.90
51567;DHT22;37657;53.182;5.638;2023-07-20T08:16:41;17.20;99.90
51567;DHT22;37657;53.182;5.638;2023-07-20T08:19:07;17.30;99.90
51567;DHT22;37657;53.182;5.638;2023-07-20T08:21:32;17.20;99.90
51567;DHT22;37657;53.182;5.638;2023-07-20T08:23:58;17.50;99.90
51567;DHT22;37657;53.182;5.638;2023-07-20T08:26:23;17.60;99.90
51567;DHT22;37657;53.182;5.638;2023-07-20T08:28:49;17.80;99.90
51567;DHT22;37657;53.182;5.638;2023-07-20T08:31:15;17.90;99.90
51567;DHT22;37657;53.182;5.638;2023-07-20T08:33:40;17.90;99.90
51567;DHT22;37657;53.182;5.638;2023-07-20T08:36:06;17.70;99.90
51567;DHT22;37657;53.182;5.638;2023-07-20T08:38:32;17.60;99.90
51567;DHT22;37657;53.182;5.638;2023-07-20T08:40:57;17.60;99.90
51567;DHT22;37657;53.182;5.638;2023-07-20T08:43:27;17.70;99.90
51567;DHT22;37657;53.182;5.638;2023-07-20T08:45:57;17.90;99.90
51567;DHT22;37657;53.182;5.638;2023-07-20T08:48:24;18.00;99.90
51567;DHT22;37657;53.182;5.638;2023-07-20T08:50:51;18.10;99.90
51567;DHT22;37657;53.182;5.638;2023-07-20T08:53:17;18.10;99.90
51567;DHT22;37657;53.182;5.638;2023-07-20T08:55:44;18.30;99.90
51567;DHT22;37657;53.182;5.638;2023-07-20T08:58:12;18.30;99.90
51567;DHT22;37657;53.182;5.638;2023-07-20T09:00:41;18.30;99.90
51567;DHT22;37657;53.182;5.638;2023-07-20T09:03:07;18.50;99.90
51567;DHT22;37657;53.182;5.638;2023-07-20T09:05:33;18.70;99.90
51567;DHT22;37657;53.182;5.638;2023-07-20T09:08:00;18.80;99.90
51567;DHT22;37657;53.182;5.638;2023-07-20T09:10:26;18.80;99.90
51567;DHT22;37657;53.182;5.638;2023-07-20T09:12:52;18.90;99.90
51567;DHT22;37657;53.182;5.638;2023-07-20T09:15:20;19.00;99.90
51567;DHT22;37657;53.182;5.638;2023-07-20T09:17:47;18.90;99.90
51567;DHT22;37657;53.182;5.638;2023-07-20T09:20:18;18.90;99.90
51567;DHT22;37657;53.182;5.638;2023-07-20T09:22:44;19.00;99.90
51567;DHT22;37657;53.182;5.638;2023-07-20T09:25:17;19.10;99.90
51567;DHT22;37657;53.182;5.638;2023-07-20T09:27:46;19.20;99.90
51567;DHT22;37657;53.182;5.638;2023-07-20T09:30:14;19.20;99.90
51567;DHT22;37657;53.182;5.638;2023-07-20T09:32:42;19.10;99.90
51567;DHT22;37657;53.182;5.638;2023-07-20T09:35:22;19.10;99.90
51567;DHT22;37657;53.182;5.638;2023-07-20T09:37:58;18.80;99.90
51567;DHT22;37657;53.182;5.638;2023-07-20T09:40:26;18.70;99.90
51567;DHT22;37657;53.182;5.638;2023-07-20T09:42:53;18.80;99.90
51567;DHT22;37657;53.182;5.638;2023-07-20T09:45:35;19.00;99.90
51567;DHT22;37657;53.182;5.638;2023-07-20T09:48:08;19.30;99.90
51567;DHT22;37657;53.182;5.638;2023-07-20T09:50:38;19.30;99.90
51567;DHT22;37657;53.182;5.638;2023-07-20T09:53:04;19.10;99.90
51567;DHT22;37657;53.182;5.638;2023-07-20T09:55:31;18.90;99.90
51567;DHT22;37657;53.182;5.638;2023-07-20T09:57:58;18.70;99.90
51567;DHT22;37657;53.182;5.638;2023-07-20T10:00:24;18.70;99.90
51567;DHT22;37657;53.182;5.638;2023-07-20T10:02:51;18.90;99.90
51567;DHT22;37657;53.182;5.638;2023-07-20T10:05:17;19.20;99.90
51567;DHT22;37657;53.182;5.638;2023-07-20T10:07:46;19.20;99.90
51567;DHT22;37657;53.182;5.638;2023-07-20T10:10:14;19.10;99.90
51567;DHT22;37657;53.182;5.638;2023-07-20T10:12:41;18.90;99.90
51567;DHT22;37657;53.182;5.638;2023-07-20T10:15:33;18.90;99.90
51567;DHT22;37657;53.182;5.638;2023-07-20T10:18:17;18.80;99.90
51567;DHT22;37657;53.182;5.638;2023-07-20T10:20:49;18.70;99.90
51567;DHT22;37657;53.182;5.638;2023-07-20T10:23:17;18.80;99.90
51567;DHT22;37657;53.182;5.638;2023-07-20T10:25:43;19.00;99.90
51567;DHT22;37657;53.182;5.638;2023-07-20T10:28:10;19.30;99.90
51567;DHT22;37657;53.182;5.638;2023-07-20T10:30:36;19.50;99.90
51567;DHT22;37657;53.182;5.638;2023-07-20T10:33:06;19.70;99.90
51567;DHT22;37657;53.182;5.638;2023-07-20T10:35:51;19.60;99.90
51567;DHT22;37657;53.182;5.638;2023-07-20T10:38:17;19.70;99.90
51567;DHT22;37657;53.182;5.638;2023-07-20T10:40:43;19.80;99.90
51567;DHT22;37657;53.182;5.638;2023-07-20T10:43:19;19.80;99.90
51567;DHT22;37657;53.182;5.638;2023-07-20T10:45:50;19.60;99.90
51567;DHT22;37657;53.182;5.638;2023-07-20T10:48:34;19.50;99.90
51567;DHT22;37657;53.182;5.638;2023-07-20T10:51:13;19.30;99.90
51567;DHT22;37657;53.182;5.638;2023-07-20T10:53:41;19.40;99.90
51567;DHT22;37657;53.182;5.638;2023-07-20T10:56:15;19.50;99.90
51567;DHT22;37657;53.182;5.638;2023-07-20T10:58:41;19.50;99.90
51567;DHT22;37657;53.182;5.638;2023-07-20T11:01:08;19.60;99.90
51567;DHT22;37657;53.182;5.638;2023-07-20T11:03:38;19.80;99.90
51567;DHT22;37657;53.182;5.638;2023-07-20T11:09:08;20.00;99.90
51567;DHT22;37657;53.182;5.638;2023-07-20T11:11:38;20.00;99.90
51567;DHT22;37657;53.182;5.638;2023-07-20T11:14:19;20.20;99.90
51567;DHT22;37657;53.182;5.638;2023-07-20T11:16:47;20.30;99.90
51567;DHT22;37657;53.182;5.638;2023-07-20T11:19:17;20.40;99.90
51567;DHT22;37657;53.182;5.638;2023-07-20T11:21:45;20.40;99.90
51567;DHT22;37657;53.182;5.638;2023-07-20T11:24:11;20.40;99.90
51567;DHT22;37657;53.182;5.638;2023-07-20T11:29:14;20.50;99.90
51567;DHT22;37657;53.182;5.638;2023-07-20T11:31:42;20.60;99.90
51567;DHT22;37657;53.182;5.638;2023-07-20T11:34:20;20.60;99.90
51567;DHT22;37657;53.182;5.638;2023-07-20T11:36:51;20.60;99.90
51567;DHT22;37657;53.182;5.638;2023-07-20T11:39:19;20.60;99.90
51567;DHT22;37657;53.182;5.638;2023-07-20T11:41:53;20.50;99.90
51567;DHT22;37657;53.182;5.638;2023-07-20T11:44:25;20.60;99.90
51567;DHT22;37657;53.182;5.638;2023-07-20T11:47:13;20.70;99.90
51567;DHT22;37657;53.182;5.638;2023-07-20T11:49:42;20.60;99.90
51567;DHT22;37657;53.182;5.638;2023-07-20T11:52:10;20.50;99.90
51567;DHT22;37657;53.182;5.638;2023-07-20T11:54:38;20.50;99.90
51567;DHT22;37657;53.182;5.638;2023-07-20T11:57:05;20.50;99.90
51567;DHT22;37657;53.182;5.638;2023-07-20T11:59:31;20.60;99.90
51567;DHT22;37657;53.182;5.638;2023-07-20T12:02:01;20.80;99.90
51567;DHT22;37657;53.182;5.638;2023-07-20T12:04:28;20.70;99.90
51567;DHT22;37657;53.182;5.638;2023-07-20T12:06:54;20.60;99.90
51567;DHT22;37657;53.182;5.638;2023-07-20T12:09:20;20.70;99.90
51567;DHT22;37657;53.182;5.638;2023-07-20T12:11:49;20.60;99.90
51567;DHT22;37657;53.182;5.638;2023-07-20T12:14:15;20.60;99.90
51567;DHT22;37657;53.182;5.638;2023-07-20T12:16:41;20.80;99.90
51567;DHT22;37657;53.182;5.638;2023-07-20T12:19:11;20.80;99.90
51567;DHT22;37657;53.182;5.638;2023-07-20T12:21:39;20.60;99.90
51567;DHT22;37657;53.182;5.638;2023-07-20T12:24:06;20.70;99.90
51567;DHT22;37657;53.182;5.638;2023-07-20T12:26:32;20.80;99.90
51567;DHT22;37657;53.182;5.638;2023-07-20T12:28:59;20.90;99.90
51567;DHT22;37657;53.182;5.638;2023-07-20T12:31:25;20.40;99.90
51567;DHT22;37657;53.182;5.638;2023-07-20T12:33:51;20.10;99.90
51567;DHT22;37657;53.182;5.638;2023-07-20T12:36:17;20.20;99.90
51567;DHT22;37657;53.182;5.638;2023-07-20T12:38:43;20.20;99.90
51567;DHT22;37657;53.182;5.638;2023-07-20T12:41:10;20.40;99.90
51567;DHT22;37657;53.182;5.638;2023-07-20T12:43:38;20.60;99.90
51567;DHT22;37657;53.182;5.638;2023-07-20T12:46:04;20.50;99.90
51567;DHT22;37657;53.182;5.638;2023-07-20T12:48:30;20.40;99.90
51567;DHT22;37657;53.182;5.638;2023-07-20T12:50:55;20.40;99.90
51567;DHT22;37657;53.182;5.638;2023-07-20T12:53:21;20.40;99.90
51567;DHT22;37657;53.182;5.638;2023-07-20T12:55:47;20.30;99.90
51567;DHT22;37657;53.182;5.638;2023-07-20T12:58:13;20.40;99.90
51567;DHT22;37657;53.182;5.638;2023-07-20T13:00:39;20.60;99.90
51567;DHT22;37657;53.182;5.638;2023-07-20T13:03:04;20.70;99.90
51567;DHT22;37657;53.182;5.638;2023-07-20T13:05:34;20.80;99.90
51567;DHT22;37657;53.182;5.638;2023-07-20T13:08:00;20.80;99.90
51567;DHT22;37657;53.182;5.638;2023-07-20T13:10:26;20.80;99.90
51567;DHT22;37657;53.182;5.638;2023-07-20T13:12:52;20.90;99.90
51567;DHT22;37657;53.182;5.638;2023-07-20T13:15:17;21.00;99.90
51567;DHT22;37657;53.182;5.638;2023-07-20T13:17:44;21.00;99.90
51567;DHT22;37657;53.182;5.638;2023-07-20T13:20:10;20.90;99.90
51567;DHT22;37657;53.182;5.638;2023-07-20T13:22:39;20.80;99.90
51567;DHT22;37657;53.182;5.638;2023-07-20T13:25:06;20.70;99.90
51567;DHT22;37657;53.182;5.638;2023-07-20T13:27:32;20.60;99.90
51567;DHT22;37657;53.182;5.638;2023-07-20T13:30:00;20.60;99.90
51567;DHT22;37657;53.182;5.638;2023-07-20T13:32:27;20.80;99.90
51567;DHT22;37657;53.182;5.638;2023-07-20T13:34:52;21.10;99.90
51567;DHT22;37657;53.182;5.638;2023-07-20T13:37:18;20.90;99.90
51567;DHT22;37657;53.182;5.638;2023-07-20T13:39:44;20.80;99.90
51567;DHT22;37657;53.182;5.638;2023-07-20T13:42:10;20.60;99.90
51567;DHT22;37657;53.182;5.638;2023-07-20T13:44:37;20.40;99.90
51567;DHT22;37657;53.182;5.638;2023-07-20T13:47:03;20.30;99.90
51567;DHT22;37657;53.182;5.638;2023-07-20T13:49:30;20.30;99.90
51567;DHT22;37657;53.182;5.638;2023-07-20T13:51:56;20.40;99.90
51567;DHT22;37657;53.182;5.638;2023-07-20T13:54:23;20.50;99.90
51567;DHT22;37657;53.182;5.638;2023-07-20T13:56:49;20.60;99.90
51567;DHT22;37657;53.182;5.638;2023-07-20T13:59:15;20.80;99.90
51567;DHT22;37657;53.182;5.638;2023-07-20T14:01:41;20.90;99.90
51567;DHT22;37657;53.182;5.638;2023-07-20T14:04:08;21.00;99.90
51567;DHT22;37657;53.182;5.638;2023-07-20T14:06:34;20.80;99.90
51567;DHT22;37657;53.182;5.638;2023-07-20T14:09:00;20.70;99.90
51567;DHT22;37657;53.182;5.638;2023-07-20T14:11:26;20.60;99.90
51567;DHT22;37657;53.182;5.638;2023-07-20T14:13:52;20.70;99.90
51567;DHT22;37657;53.182;5.638;2023-07-20T14:16:22;20.70;99.90
51567;DHT22;37657;53.182;5.638;2023-07-20T14:18:48;20.70;99.90
51567;DHT22;37657;53.182;5.638;2023-07-20T14:21:18;20.40;99.90
51567;DHT22;37657;53.182;5.638;2023-07-20T14:23:49;20.30;99.90
51567;DHT22;37657;53.182;5.638;2023-07-20T14:26:18;20.20;99.90
51567;DHT22;37657;53.182;5.638;2023-07-20T14:28:44;20.30;99.90
51567;DHT22;37657;53.182;5.638;2023-07-20T14:31:09;20.50;99.90
51567;DHT22;37657;53.182;5.638;2023-07-20T14:33:35;20.20;99.90
51567;DHT22;37657;53.182;5.638;2023-07-20T14:36:02;20.40;99.90
51567;DHT22;37657;53.182;5.638;2023-07-20T14:38:28;20.50;99.90
51567;DHT22;37657;53.182;5.638;2023-07-20T14:40:54;20.70;99.90
51567;DHT22;37657;53.182;5.638;2023-07-20T14:43:20;20.50;99.90
51567;DHT22;37657;53.182;5.638;2023-07-20T14:45:45;20.60;99.90
51567;DHT22;37657;53.182;5.638;2023-07-20T14:48:12;20.70;99.90
51567;DHT22;37657;53.182;5.638;2023-07-20T14:50:37;20.60;99.90
51567;DHT22;37657;53.182;5.638;2023-07-20T14:53:03;20.60;99.90
51567;DHT22;37657;53.182;5.638;2023-07-20T14:55:29;20.70;99.90
51567;DHT22;37657;53.182;5.638;2023-07-20T14:57:54;20.30;99.90
51567;DHT22;37657;53.182;5.638;2023-07-20T15:00:20;20.10;99.90
51567;DHT22;37657;53.182;5.638;2023-07-20T15:02:46;20.10;99.90
51567;DHT22;37657;53.182;5.638;2023-07-20T15:05:12;20.20;99.90
51567;DHT22;37657;53.182;5.638;2023-07-20T15:07:45;20.20;99.90
51567;DHT22;37657;53.182;5.638;2023-07-20T15:10:11;20.20;99.90
51567;DHT22;37657;53.182;5.638;2023-07-20T15:12:36;20.10;99.90
51567;DHT22;37657;53.182;5.638;2023-07-20T15:17:35;19.90;99.90
51567;DHT22;37657;53.182;5.638;2023-07-20T15:20:05;19.70;99.90
51567;DHT22;37657;53.182;5.638;2023-07-20T15:22:34;19.60;99.90
51567;DHT22;37657;53.182;5.638;2023-07-20T15:25:02;19.50;99.90
51567;DHT22;37657;53.182;5.638;2023-07-20T15:27:27;19.40;99.90
51567;DHT22;37657;53.182;5.638;2023-07-20T15:29:53;19.40;99.90
51567;DHT22;37657;53.182;5.638;2023-07-20T15:32:18;19.30;99.90
51567;DHT22;37657;53.182;5.638;2023-07-20T15:34:44;19.60;99.90
51567;DHT22;37657;53.182;5.638;2023-07-20T15:37:11;19.40;99.90
51567;DHT22;37657;53.182;5.638;2023-07-20T15:39:37;19.50;99.90
51567;DHT22;37657;53.182;5.638;2023-07-20T15:42:03;19.50;99.90